CW7220 Ibiza-ciudad ES current weather conditions

sailwx.info

Wind from 312 at 1 knots gusting 2

Air temperature 23.3° C
Dewpoint 21.2° C

Last reported at 2019-Sep-16 22:05 UTC.
Time now 2019-Sep-16 22:24 UTC

Location: N 38°54' E 001°25'.
View on Google Maps.

See reports from other nearby stations

  
Tides and Currents Weather Stations Pressure Air Temp Water Temp Dewpoint Dewpoint Depression Visibility Wind Speed Wind Dir Waves Ship Positions
date/time (UTC)wind fromknots sea level pressurealtimeterstation pressurevisibilityair tempwater tempwave heightnotes
2019-Sep-16 22:10 308 1 gusting 2 23.3
2019-Sep-16 22:05 312 1 gusting 2 23.3
2019-Sep-16 22:00 315 1 gusting 2 23.3
2019-Sep-16 21:55 315 1 gusting 2 23.3
2019-Sep-16 21:50 315 1 gusting 2 23.3
2019-Sep-16 21:45 315 2 gusting 4 23.3
2019-Sep-16 21:40 332 1 gusting 2 23.9
2019-Sep-16 21:35 332 0 gusting 1 23.9
2019-Sep-16 21:30 332 23.9
2019-Sep-16 21:25 332 23.9
2019-Sep-16 21:20 332 0 gusting 1 23.9
2019-Sep-16 21:15 332 23.9
2019-Sep-16 21:10 332 0 gusting 2 23.9
2019-Sep-16 21:05 332 1 gusting 4 23.9
2019-Sep-16 21:00 331 2 gusting 4 23.9
2019-Sep-16 20:55 324 1 gusting 2 23.9
2019-Sep-16 20:50 324 0 gusting 1 23.9
2019-Sep-16 20:45 324 1 gusting 2 23.9
2019-Sep-16 20:40 324 2 gusting 4 23.9
2019-Sep-16 20:35 355 1 gusting 2 23.9
2019-Sep-16 20:30 23.9
2019-Sep-16 20:25 005 3 gusting 5 23.9
2019-Sep-16 20:20 23.9
2019-Sep-16 20:15 343 1 gusting 4 23.9
2019-Sep-16 20:10 343 2 gusting 4 23.9
2019-Sep-16 20:05 344 3 gusting 6 23.9
2019-Sep-16 20:00 005 2 gusting 4 23.9
2019-Sep-16 19:55 005 2 gusting 5 23.9
2019-Sep-16 19:50 005 3 gusting 5 23.9
2019-Sep-16 19:45 005 2 gusting 4 23.9
2019-Sep-16 19:40 355 2 gusting 4 23.9
2019-Sep-16 19:35 346 0 gusting 2 23.9
2019-Sep-16 19:30 346 0 gusting 2 23.9
2019-Sep-16 19:25 346 1 gusting 2 23.9
2019-Sep-16 19:20 345 1 gusting 2 23.9
2019-Sep-16 19:15 345 2 gusting 4 23.9
2019-Sep-16 19:10 338 2 gusting 5 23.9
2019-Sep-16 19:05 339 2 gusting 6 23.9
2019-Sep-16 19:00 355 1 gusting 4 23.9
2019-Sep-16 18:55 355 2 gusting 4 23.9
2019-Sep-16 18:50 355 1 gusting 2 23.9
2019-Sep-16 18:45 357 2 gusting 4 24.4
2019-Sep-16 18:40 005 1 gusting 4 24.4
2019-Sep-16 18:35 005 0 gusting 2 24.4
2019-Sep-16 18:30 005 2 gusting 4 24.4
2019-Sep-16 18:25 005 2 gusting 4 24.4
2019-Sep-16 18:20 021 2 gusting 4 24.4
2019-Sep-16 18:15 029 1 gusting 2 25.0
2019-Sep-16 18:10 029 2 gusting 4 25.0
2019-Sep-16 18:05 030 1 gusting 2 25.0
2019-Sep-16 18:00 039 1 gusting 2 25.0
2019-Sep-16 17:55 042 2 gusting 2 25.6
2019-Sep-16 17:50 045 0 gusting 2 25.6
2019-Sep-16 17:45 045 0 gusting 2 25.6
2019-Sep-16 17:40 045 25.6
2019-Sep-16 17:35 045 1 gusting 2 25.6
2019-Sep-16 17:30 045 1 gusting 4 25.6
2019-Sep-16 17:25 044 2 gusting 5 25.6
2019-Sep-16 17:20 037 1 gusting 2 25.6
2019-Sep-16 17:15 038 2 gusting 4 25.6
2019-Sep-16 17:10 037 2 gusting 5 25.6
2019-Sep-16 17:05 040 2 gusting 5 25.6
2019-Sep-16 17:00 031 3 gusting 6 25.6
2019-Sep-16 16:55 043 3 gusting 10 25.6
2019-Sep-16 16:50 040 5 gusting 7 25.6
2019-Sep-16 16:45 039 5 gusting 7 25.6
2019-Sep-16 16:40 031 4 gusting 6 25.6
2019-Sep-16 16:35 036 3 gusting 5 25.6
2019-Sep-16 16:30 034 3 gusting 8 26.1
2019-Sep-16 16:25 019 5 gusting 8 26.1
2019-Sep-16 16:20 032 5 gusting 8 26.1
2019-Sep-16 16:15 039 2 gusting 6 26.1
2019-Sep-16 16:10 041 1 gusting 6 26.1
2019-Sep-16 16:05 035 4 gusting 6 26.1
2019-Sep-16 16:00 029 3 gusting 6 26.1
2019-Sep-16 15:55 032 2 gusting 7 25.6
2019-Sep-16 15:50 007 6 gusting 10 26.1
2019-Sep-16 15:45 016 4 gusting 7 26.1
2019-Sep-16 15:40 038 6 gusting 8 26.1
2019-Sep-16 15:35 025 5 gusting 8 26.1
2019-Sep-16 15:30 028 4 gusting 7 26.1
2019-Sep-16 15:25 075 2 gusting 4 26.1
2019-Sep-16 15:20 030 2 gusting 4 26.1
2019-Sep-16 15:15 354 4 gusting 6 26.1
2019-Sep-16 15:10 046 1 gusting 4 26.1
2019-Sep-16 15:05 055 2 gusting 4 26.1
2019-Sep-16 15:00 343 26.1
2019-Sep-16 14:55 321 1 gusting 2 26.7
2019-Sep-16 14:50 311 2 gusting 6 26.7
2019-Sep-16 14:45 26.7
2019-Sep-16 14:40 26.7
2019-Sep-16 14:35 303 1 gusting 4 26.7
2019-Sep-16 14:30 294 1 gusting 4 26.7
2019-Sep-16 14:25 308 1 gusting 6 26.7
2019-Sep-16 14:20 336 5 gusting 8 26.7
2019-Sep-16 14:15 339 2 gusting 7 26.7
2019-Sep-16 14:10 336 3 gusting 6 26.7
2019-Sep-16 14:05 332 2 gusting 4 26.7
2019-Sep-16 14:00 27.2
2019-Sep-16 13:55 308 3 gusting 6 27.2
2019-Sep-16 13:50 291 0 gusting 6 27.2
2019-Sep-16 13:45 024 1 gusting 5 27.2
2019-Sep-16 13:40 043 4 gusting 6 27.2
2019-Sep-16 13:35 020 4 gusting 7 27.2
2019-Sep-16 13:30 045 5 gusting 10 27.2
2019-Sep-16 13:25 056 5 gusting 10 27.2
2019-Sep-16 13:20 043 4 gusting 13 27.2
2019-Sep-16 13:15 008 6 gusting 10 27.2
2019-Sep-16 13:10 031 6 gusting 10 27.2
2019-Sep-16 13:05 012 6 gusting 8 26.7
2019-Sep-16 13:00 001 6 gusting 10 26.7
2019-Sep-16 12:55 012 6 gusting 10 26.7
2019-Sep-16 12:50 008 6 gusting 10 26.7
2019-Sep-16 12:45 014 4 gusting 10 26.7
2019-Sep-16 12:40 005 3 gusting 5 26.7
2019-Sep-16 12:35 005 6 gusting 10 27.2
2019-Sep-16 12:30 003 4 gusting 10 27.2
2019-Sep-16 12:25 033 2 gusting 10 27.2
2019-Sep-16 12:20 016 2 gusting 6 26.7
2019-Sep-16 12:15 041 6 gusting 10 26.7
2019-Sep-16 12:10 019 2 gusting 7 27.2
2019-Sep-16 12:05 042 5 gusting 10 27.2
2019-Sep-16 12:00 058 5 gusting 7 27.2
2019-Sep-16 11:55 049 4 gusting 6 27.2
2019-Sep-16 11:50 047 4 gusting 6 27.2
2019-Sep-16 11:45 022 5 gusting 8 27.2
2019-Sep-16 11:40 019 6 gusting 10 26.7
2019-Sep-16 11:35 045 3 gusting 8 26.7
2019-Sep-16 11:30 033 6 gusting 10 26.7
2019-Sep-16 11:25 046 4 gusting 6 26.7
2019-Sep-16 11:20 072 2 gusting 4 26.7
2019-Sep-16 11:15 076 3 gusting 6 26.7
2019-Sep-16 11:10 081 2 gusting 5 26.7
2019-Sep-16 11:05 036 5 gusting 10 26.7
2019-Sep-16 11:00 043 6 gusting 10 26.1
2019-Sep-16 10:55 033 3 gusting 7 26.1
2019-Sep-16 10:50 051 5 gusting 8 26.1
2019-Sep-16 10:45 066 3 gusting 5 26.1
2019-Sep-16 10:40 013 5 gusting 8 26.1
2019-Sep-16 10:35 028 2 gusting 7 26.1
2019-Sep-16 10:30 084 1 gusting 6 26.1
2019-Sep-16 10:25 069 2 gusting 4 26.1
2019-Sep-16 10:20 014 3 gusting 7 26.1
2019-Sep-16 10:15 032 4 gusting 6 26.1
2019-Sep-16 10:10 031 5 gusting 8 26.1
2019-Sep-16 10:05 060 3 gusting 7 26.1
2019-Sep-16 10:00 031 4 gusting 6 26.1
2019-Sep-16 09:55 038 1 gusting 6 26.1
2019-Sep-16 09:50 044 5 gusting 7 26.1
2019-Sep-16 09:45 044 2 gusting 4 26.1
2019-Sep-16 09:40 028 2 gusting 6 26.1
2019-Sep-16 09:35 051 2 gusting 5 25.6
2019-Sep-16 09:30 047 2 gusting 5 25.6
2019-Sep-16 09:25 052 5 gusting 7 25.6
2019-Sep-16 09:20 055 3 gusting 8 25.6
2019-Sep-16 09:15 040 5 gusting 10 25.6
2019-Sep-16 09:10 017 4 gusting 8 25.6
2019-Sep-16 09:05 017 6 gusting 8 25.6
2019-Sep-16 09:00 020 3 gusting 7 25.0
2019-Sep-16 08:55 022 7 gusting 10 25.0
2019-Sep-16 08:50 037 5 gusting 7 25.0
2019-Sep-16 08:45 014 5 gusting 10 25.0
2019-Sep-16 08:40 045 6 gusting 8 25.0
2019-Sep-16 08:35 356 4 gusting 6 25.0
2019-Sep-16 08:30 009 4 gusting 6 25.0
2019-Sep-16 08:25 008 4 gusting 7 25.0
2019-Sep-16 08:20 017 4 gusting 10 24.4
2019-Sep-16 08:15 24.4
2019-Sep-16 08:10 042 6 gusting 8 24.4
2019-Sep-16 08:05 023 4 gusting 6 24.4
2019-Sep-16 08:00 016 4 gusting 7 24.4
2019-Sep-16 07:55 010 6 gusting 10 24.4
2019-Sep-16 07:50 013 6 gusting 8 24.4
2019-Sep-16 07:45 24.4
2019-Sep-16 07:40 003 6 gusting 8 24.4
2019-Sep-16 07:35 008 5 gusting 10 24.4
2019-Sep-16 07:30 017 4 gusting 8 24.4
2019-Sep-16 07:25 030 7 gusting 10 24.4
2019-Sep-16 07:20 008 4 gusting 8 24.4
2019-Sep-16 07:15 019 5 gusting 8 24.4
2019-Sep-16 07:10 019 5 gusting 10 24.4
2019-Sep-16 07:05 024 5 gusting 10 23.9
2019-Sep-16 07:00 018 4 gusting 10 23.9
2019-Sep-16 06:55 027 6 gusting 11 23.9
2019-Sep-16 06:50 027 6 gusting 11 23.9
2019-Sep-16 06:45 026 6 gusting 10 23.9
2019-Sep-16 06:40 017 7 gusting 11 23.9
2019-Sep-16 06:35 024 6 gusting 11 23.9
2019-Sep-16 06:30 024 6 gusting 10 23.9
2019-Sep-16 06:25 022 6 gusting 10 23.3
2019-Sep-16 06:20 020 6 gusting 10 23.3
2019-Sep-16 06:15 025 5 gusting 7 23.3
2019-Sep-16 06:10 017 6 gusting 10 23.3
2019-Sep-16 06:05 024 5 gusting 10 23.3
2019-Sep-16 06:00 015 5 gusting 10 23.3
2019-Sep-16 05:55 014 5 gusting 12 23.3
2019-Sep-16 05:50 020 6 gusting 10 23.3
2019-Sep-16 05:45 020 6 gusting 10 23.3
2019-Sep-16 05:40 019 6 gusting 11 23.3
2019-Sep-16 05:35 014 7 gusting 10 23.3
2019-Sep-16 05:30 017 8 gusting 10 23.3
2019-Sep-16 05:25 011 5 gusting 10 23.3
2019-Sep-16 05:20 016 7 gusting 10 23.3
2019-Sep-16 05:15 009 4 gusting 10 23.3
2019-Sep-16 05:10 024 5 gusting 8 23.3
2019-Sep-16 05:05 017 6 gusting 10 23.3
2019-Sep-16 05:00 019 5 gusting 8 23.3
2019-Sep-16 04:55 020 5 gusting 8 23.3
2019-Sep-16 04:50 008 6 gusting 10 23.3
2019-Sep-16 04:45 013 5 gusting 10 23.3
2019-Sep-16 04:40 015 5 gusting 10 23.3
2019-Sep-16 04:35 017 6 gusting 8 23.3
2019-Sep-16 04:30 019 5 gusting 8 23.3
2019-Sep-16 04:25 017 5 gusting 10 23.3
2019-Sep-16 04:20 018 6 gusting 10 23.3
2019-Sep-16 04:15 021 6 gusting 8 23.3
2019-Sep-16 04:10 021 6 gusting 10 23.3
2019-Sep-16 04:05 016 5 gusting 8 23.3
2019-Sep-16 04:00 023 6 gusting 8 23.3
2019-Sep-16 03:55 021 5 gusting 7 23.3
2019-Sep-16 03:50 038 5 gusting 10 23.9
2019-Sep-16 03:45 026 4 gusting 6 23.9
2019-Sep-16 03:40 027 5 gusting 8 23.9
2019-Sep-16 03:35 023 5 gusting 10 23.9
2019-Sep-16 03:30 036 6 gusting 11 23.9
2019-Sep-16 03:25 041 5 gusting 10 23.9
2019-Sep-16 03:20 031 4 gusting 11 23.9
2019-Sep-16 03:15 032 6 gusting 11 23.9
2019-Sep-16 03:10 029 7 gusting 13 23.9
2019-Sep-16 03:05 030 6 gusting 8 23.9
2019-Sep-16 03:00 033 6 gusting 8 23.9
2019-Sep-16 02:55 027 6 gusting 10 23.9
2019-Sep-16 02:50 010 6 gusting 10 23.9
2019-Sep-16 02:45 030 4 gusting 8 23.9
2019-Sep-16 02:40 013 6 gusting 13 23.9
2019-Sep-16 02:35 027 4 gusting 10 23.9
2019-Sep-16 02:30 023 5 gusting 8 23.9
2019-Sep-16 02:20 007 5 gusting 10 23.9
2019-Sep-16 02:15 024 6 gusting 8 23.9
2019-Sep-16 02:10 024 4 gusting 7 23.9
2019-Sep-16 02:05 036 5 gusting 8 23.9
2019-Sep-16 02:00 036 6 gusting 10 23.9
2019-Sep-16 01:55 031 6 gusting 11 23.9
2019-Sep-16 01:50 037 6 gusting 11 23.9
2019-Sep-16 01:45 033 6 gusting 10 23.9
2019-Sep-16 01:40 020 6 gusting 10 23.9
2019-Sep-16 01:35 029 5 gusting 10 23.9
2019-Sep-16 01:30 027 5 gusting 10 23.9
2019-Sep-16 01:25 027 4 gusting 7 23.9
2019-Sep-16 01:20 036 4 gusting 7 23.9
2019-Sep-16 01:15 030 4 gusting 8 24.4
2019-Sep-16 01:10 031 5 gusting 7 24.4
2019-Sep-16 01:05 027 4 gusting 7 23.9
2019-Sep-16 01:00 055 4 gusting 6 23.9
2019-Sep-16 00:55 040 4 gusting 6 23.9
2019-Sep-16 00:50 034 5 gusting 10 24.4
2019-Sep-16 00:45 045 6 gusting 12 24.4
2019-Sep-16 00:40 043 6 gusting 10 24.4
2019-Sep-16 00:35 042 4 gusting 10 23.9
2019-Sep-16 00:30 037 6 gusting 11 24.4
2019-Sep-16 00:25 047 6 gusting 11 23.9
2019-Sep-16 00:20 039 5 gusting 8 24.4
2019-Sep-16 00:15 042 4 gusting 7 24.4
2019-Sep-16 00:10 056 4 gusting 8 24.4
2019-Sep-16 00:05 013 5 gusting 10 24.4
2019-Sep-16 00:00 041 5 gusting 10 24.4
2019-Sep-15 23:55 052 3 gusting 10 24.4
2019-Sep-15 23:50 051 6 gusting 8 24.4
2019-Sep-15 23:45 047 4 gusting 10 24.4
2019-Sep-15 23:40 049 6 gusting 12 24.4
2019-Sep-15 23:35 068 4 gusting 7 24.4
2019-Sep-15 23:30 039 5 gusting 8 24.4
2019-Sep-15 23:25 040 3 gusting 10 24.4
2019-Sep-15 23:20 065 5 gusting 8 24.4
2019-Sep-15 23:15 045 5 gusting 8 24.4
2019-Sep-15 23:10 053 4 gusting 10 24.4
2019-Sep-15 23:05 044 4 gusting 11 24.4
2019-Sep-15 23:00 036 3 gusting 7 24.4
2019-Sep-15 22:55 032 3 gusting 7 24.4
2019-Sep-15 22:50 064 5 gusting 10 24.4
2019-Sep-15 22:45 044 3 gusting 7 24.4
2019-Sep-15 22:40 048 4 gusting 7 24.4
2019-Sep-15 22:35 056 4 gusting 10 24.4
2019-Sep-15 22:30 042 5 gusting 10 24.4
2019-Sep-15 22:25 050 4 gusting 8 24.4
2019-Sep-15 22:20 035 6 gusting 10 24.4
2019-Sep-15 22:15 051 4 gusting 7 24.4
2019-Sep-15 22:10 039 4 gusting 8 24.4
2019-Sep-15 22:05 059 7 gusting 10 24.4
2019-Sep-15 22:00 050 4 gusting 8 24.4
2019-Sep-15 21:55 042 5 gusting 10 24.4
2019-Sep-15 21:50 041 5 gusting 10 24.4
2019-Sep-15 21:45 037 4 gusting 7 24.4
2019-Sep-15 21:40 048 4 gusting 7 24.4
2019-Sep-15 21:35 052 4 gusting 10 25.0
2019-Sep-15 21:30 056 5 gusting 10 25.0
2019-Sep-15 21:25 048 5 gusting 10 25.0
2019-Sep-15 21:20 061 5 gusting 8 25.0
2019-Sep-15 21:15 062 4 gusting 8 25.0
2019-Sep-15 21:10 060 6 gusting 8 25.0
2019-Sep-15 21:05 056 5 gusting 10 25.0
2019-Sep-15 21:00 060 4 gusting 7 25.0
2019-Sep-15 20:55 048 4 gusting 7 25.0
2019-Sep-15 20:50 063 5 gusting 8 25.0
2019-Sep-15 20:45 046 4 gusting 8 25.0
2019-Sep-15 20:40 063 5 gusting 10 25.0
2019-Sep-15 20:35 048 5 gusting 10 25.0
2019-Sep-15 20:30 055 5 gusting 10 25.0
2019-Sep-15 20:25 045 5 gusting 10 25.0
2019-Sep-15 20:20 052 3 gusting 7 25.0
2019-Sep-15 20:15 060 3 gusting 10 25.0
2019-Sep-15 20:10 052 4 gusting 7 25.0
2019-Sep-15 20:05 042 5 gusting 10 25.0
2019-Sep-15 20:00 043 4 gusting 10 25.0
2019-Sep-15 19:55 036 6 gusting 10 25.0
2019-Sep-15 19:50 049 4 gusting 7 25.0
2019-Sep-15 19:45 038 4 gusting 7 25.0
2019-Sep-15 19:40 062 6 gusting 11 25.0
2019-Sep-15 19:35 048 5 gusting 10 25.0
2019-Sep-15 19:30 044 6 gusting 8 25.0
2019-Sep-15 19:25 055 3 gusting 7 25.0
2019-Sep-15 19:20 053 5 gusting 10 25.0
2019-Sep-15 19:15 049 4 gusting 8 25.0
2019-Sep-15 19:10 054 5 gusting 10 25.0
2019-Sep-15 19:05 063 5 gusting 10 25.0
2019-Sep-15 19:00 071 6 gusting 12 25.0
2019-Sep-15 18:55 042 4 gusting 8 25.0
2019-Sep-15 18:50 063 5 gusting 10 25.0
2019-Sep-15 18:45 038 4 gusting 10 25.0
2019-Sep-15 18:40 048 4 gusting 8 25.0
2019-Sep-15 18:35 052 5 gusting 13 25.0
2019-Sep-15 18:30 031 7 gusting 13 25.0
2019-Sep-15 18:25 047 7 gusting 11 25.0
2019-Sep-15 18:20 058 5 gusting 12 25.0
2019-Sep-15 18:15 025 5 gusting 10 25.0
2019-Sep-15 18:10 037 6 gusting 12 25.0
2019-Sep-15 18:05 069 5 gusting 10 25.0
2019-Sep-15 18:00 037 4 gusting 10 25.0
2019-Sep-15 17:55 036 6 gusting 12 25.0
2019-Sep-15 17:50 043 6 gusting 10 25.0
2019-Sep-15 17:45 037 6 gusting 10 25.0
2019-Sep-15 17:40 044 5 gusting 8 25.0
2019-Sep-15 17:35 062 7 gusting 15 25.0
2019-Sep-15 17:30 042 7 gusting 11 25.0
2019-Sep-15 17:25 045 7 gusting 12 25.0
2019-Sep-15 17:20 069 6 gusting 12 25.0
2019-Sep-15 17:15 047 6 gusting 13 25.0
2019-Sep-15 17:10 051 7 gusting 13 25.0
2019-Sep-15 17:05 035 8 gusting 13 25.0
2019-Sep-15 17:00 044 5 gusting 11 25.0
2019-Sep-15 16:55 045 7 gusting 13 25.0
2019-Sep-15 16:50 038 7 gusting 13 25.0
2019-Sep-15 16:45 036 8 gusting 13 25.6
2019-Sep-15 16:40 034 7 gusting 12 25.6
2019-Sep-15 16:35 051 7 gusting 14 25.6
2019-Sep-15 16:30 072 7 gusting 13 25.6
2019-Sep-15 16:25 065 7 gusting 13 25.6
2019-Sep-15 16:20 052 8 gusting 13 25.6
2019-Sep-15 16:15 041 5 gusting 11 25.6
2019-Sep-15 16:10 056 7 gusting 12 25.6
2019-Sep-15 16:05 068 8 gusting 13 25.6
2019-Sep-15 16:00 062 7 gusting 12 25.6
2019-Sep-15 15:55 071 6 gusting 12 25.6
2019-Sep-15 15:50 062 10 gusting 13 25.6
2019-Sep-15 15:45 083 6 gusting 13 25.6
2019-Sep-15 15:40 068 8 gusting 13 25.6
2019-Sep-15 15:35 069 7 gusting 13 25.6
2019-Sep-15 15:30 077 8 gusting 12 25.6
2019-Sep-15 15:25 078 8 gusting 12 26.1
2019-Sep-15 15:20 083 5 gusting 11 26.1
2019-Sep-15 15:15 074 4 gusting 12 25.6
2019-Sep-15 15:10 067 6 gusting 11 25.6
2019-Sep-15 15:05 057 7 gusting 13 25.6
2019-Sep-15 15:00 069 7 gusting 13 25.6
2019-Sep-15 14:55 077 7 gusting 11 26.1
2019-Sep-15 14:50 065 7 gusting 10 26.1
2019-Sep-15 14:45 055 6 gusting 11 26.1
2019-Sep-15 14:40 070 6 gusting 10 26.1
2019-Sep-15 14:35 063 6 gusting 13 26.1
2019-Sep-15 14:30 086 7 gusting 13 26.1
2019-Sep-15 14:25 044 8 gusting 11 26.1
2019-Sep-15 14:20 054 8 gusting 15 26.1
2019-Sep-15 14:15 058 5 gusting 12 26.1
2019-Sep-15 14:10 060 8 gusting 13 26.1
2019-Sep-15 14:05 071 7 gusting 17 26.1
2019-Sep-15 14:00 057 6 gusting 13 26.1
2019-Sep-15 13:55 051 8 gusting 13 26.1
2019-Sep-15 13:50 049 8 gusting 13 26.1
2019-Sep-15 13:45 050 7 gusting 11 26.7
2019-Sep-15 13:40 055 5 gusting 12 26.1
2019-Sep-15 13:35 074 7 gusting 12 26.1
2019-Sep-15 13:30 064 7 gusting 14 26.1
2019-Sep-15 13:25 065 8 gusting 13 26.1
2019-Sep-15 13:20 061 9 gusting 14 26.1
2019-Sep-15 13:15 076 9 gusting 15 26.1
2019-Sep-15 13:10 075 8 gusting 12 26.1
2019-Sep-15 13:05 064 9 gusting 13 26.1
2019-Sep-15 13:00 084 6 gusting 15 26.7
2019-Sep-15 12:55 054 6 gusting 12 26.1
2019-Sep-15 12:50 062 6 gusting 13 26.1
2019-Sep-15 12:45 073 6 gusting 12 26.1
2019-Sep-15 12:40 055 8 gusting 15 26.1
2019-Sep-15 12:35 067 8 gusting 14 26.1
2019-Sep-15 12:30 078 7 gusting 14 26.1
2019-Sep-15 12:25 063 10 gusting 13 26.1
2019-Sep-15 12:20 079 9 gusting 13 26.7
2019-Sep-15 12:15 072 7 gusting 13 26.7
2019-Sep-15 12:10 065 7 gusting 12 26.7
2019-Sep-15 12:05 095 7 gusting 12 26.7
2019-Sep-15 12:00 073 7 gusting 13 26.7
2019-Sep-15 11:55 079 6 gusting 13 26.7
2019-Sep-15 11:50 075 6 gusting 14 26.7
2019-Sep-15 11:45 063 7 gusting 13 26.7
2019-Sep-15 11:40 065 10 gusting 14 26.1
2019-Sep-15 11:35 070 6 gusting 13 26.1
2019-Sep-15 11:30 067 8 gusting 14 26.1
2019-Sep-15 11:25 058 8 gusting 13 26.1
2019-Sep-15 11:20 060 9 gusting 13 26.1
2019-Sep-15 11:15 066 10 gusting 15 25.6
2019-Sep-15 11:10 077 11 gusting 17 25.6
2019-Sep-15 11:05 062 11 gusting 17 25.6
2019-Sep-15 11:00 066 12 gusting 17 25.6
2019-Sep-15 10:55 080 11 gusting 17 25.6
2019-Sep-15 10:50 088 9 gusting 15 26.1
2019-Sep-15 10:45 080 10 gusting 13 26.1
2019-Sep-15 10:40 069 8 gusting 13 26.1
2019-Sep-15 10:35 073 7 gusting 15 26.1
2019-Sep-15 10:30 071 7 gusting 13 26.1
2019-Sep-15 10:25 071 9 gusting 13 25.6
2019-Sep-15 10:20 072 7 gusting 13 25.6
2019-Sep-15 10:15 057 9 gusting 13 25.6
2019-Sep-15 10:10 064 7 gusting 13 25.6
2019-Sep-15 10:05 068 8 gusting 15 25.6
2019-Sep-15 10:00 063 8 gusting 15 25.6
2019-Sep-15 09:55 066 11 gusting 18 25.6
2019-Sep-15 09:50 066 12 gusting 19 25.6
2019-Sep-15 09:45 068 11 gusting 15 25.6
2019-Sep-15 09:40 056 13 gusting 19 25.6
2019-Sep-15 09:35 071 10 gusting 19 25.6
2019-Sep-15 09:30 073 10 gusting 15 25.6
2019-Sep-15 09:25 067 11 gusting 17 25.6
2019-Sep-15 09:20 050 11 gusting 15 25.6
2019-Sep-15 09:15 053 9 gusting 15 25.6
2019-Sep-15 09:10 061 10 gusting 19 25.6
2019-Sep-15 09:05 066 8 gusting 15 25.6
2019-Sep-15 09:00 073 13 gusting 17 25.6
2019-Sep-15 08:55 059 11 gusting 17 25.6
2019-Sep-15 08:50 059 8 gusting 14 25.6
2019-Sep-15 08:45 069 8 gusting 15 25.6
2019-Sep-15 08:40 073 12 gusting 19 25.6
2019-Sep-15 08:35 070 8 gusting 19 25.6
2019-Sep-15 08:30 067 11 gusting 17 25.6
2019-Sep-15 08:25 067 7 gusting 15 25.6
2019-Sep-15 08:20 049 6 gusting 13 25.6
2019-Sep-15 08:15 056 9 gusting 12 25.6
2019-Sep-15 08:10 037 6 gusting 14 25.6
2019-Sep-15 08:05 057 7 gusting 13 25.6
2019-Sep-15 08:00 034 8 gusting 12 25.0
2019-Sep-15 07:55 040 11 gusting 17 25.0
2019-Sep-15 07:50 041 8 gusting 17 25.0
2019-Sep-15 07:45 037 9 gusting 17 25.0
2019-Sep-15 07:40 035 8 gusting 14 25.0
2019-Sep-15 07:35 046 9 gusting 14 25.0
2019-Sep-15 07:30 039 11 gusting 17 24.4
2019-Sep-15 07:25 047 9 gusting 13 24.4
2019-Sep-15 07:20 033 7 gusting 13 24.4
2019-Sep-15 07:15 034 9 gusting 13 24.4
2019-Sep-15 07:10 031 8 gusting 14 24.4
2019-Sep-15 07:05 050 8 gusting 18 24.4
2019-Sep-15 07:00 041 6 gusting 11 24.4
2019-Sep-15 06:55 040 8 gusting 17 23.9
2019-Sep-15 06:50 041 7 gusting 15 23.9
2019-Sep-15 06:45 045 6 gusting 10 23.9
2019-Sep-15 06:40 039 5 gusting 12 23.9
2019-Sep-15 06:35 027 7 gusting 12 23.9
2019-Sep-15 06:30 026 8 gusting 13 23.9
2019-Sep-15 06:25 029 7 gusting 13 23.9
2019-Sep-15 06:20 021 8 gusting 14 23.3
2019-Sep-15 06:15 025 8 gusting 13 23.3
2019-Sep-15 06:10 019 8 gusting 12 23.3
2019-Sep-15 06:05 024 8 gusting 12 23.3
2019-Sep-15 06:00 013 8 gusting 13 23.3
2019-Sep-15 05:55 019 9 gusting 13 23.3
2019-Sep-15 05:50 016 6 gusting 13 23.3
2019-Sep-15 05:45 023 7 gusting 14 23.3
2019-Sep-15 05:40 027 8 gusting 13 23.3
2019-Sep-15 05:35 020 8 gusting 13 23.3
2019-Sep-15 05:30 017 10 gusting 14 23.3
2019-Sep-15 05:25 016 11 gusting 15 23.3
2019-Sep-15 05:20 019 10 gusting 13 23.3
2019-Sep-15 05:15 026 7 gusting 13 23.3
2019-Sep-15 05:10 016 11 gusting 14 23.3
2019-Sep-15 05:05 008 8 gusting 13 23.3
2019-Sep-15 05:00 028 6 gusting 10 23.3
2019-Sep-15 04:55 028 6 gusting 10 23.3
2019-Sep-15 04:50 031 6 gusting 11 23.3
2019-Sep-15 04:45 032 7 gusting 11 23.3
2019-Sep-15 04:40 029 7 gusting 13 23.3
2019-Sep-15 04:35 023 7 gusting 12 23.3
2019-Sep-15 04:30 014 7 gusting 10 23.3
2019-Sep-15 04:25 034 6 gusting 10 23.3
2019-Sep-15 04:20 034 6 gusting 10 23.3
2019-Sep-15 04:15 023 5 gusting 10 23.3
2019-Sep-15 04:10 020 7 gusting 11 23.3
2019-Sep-15 04:05 025 6 gusting 10 23.3
2019-Sep-15 04:00 033 6 gusting 10 23.3
2019-Sep-15 03:55 025 6 gusting 11 23.3
2019-Sep-15 03:50 019 6 gusting 10 23.3
2019-Sep-15 03:45 030 6 gusting 10 23.3
2019-Sep-15 03:40 022 6 gusting 8 23.3
2019-Sep-15 03:35 022 5 gusting 7 23.3
2019-Sep-15 03:30 022 6 gusting 10 23.3
2019-Sep-15 03:25 027 6 gusting 10 23.3
2019-Sep-15 03:20 016 6 gusting 10 23.3
2019-Sep-15 03:15 012 7 gusting 10 23.3
2019-Sep-15 03:10 016 6 gusting 8 23.3
2019-Sep-15 03:05 017 6 gusting 10 23.3
2019-Sep-15 03:00 014 6 gusting 10 23.3
2019-Sep-15 02:55 018 5 gusting 8 23.3
2019-Sep-15 02:50 027 5 gusting 7 23.3
2019-Sep-15 02:45 025 5 gusting 10 23.3
2019-Sep-15 02:40 020 6 gusting 10 23.9
2019-Sep-15 02:35 013 7 gusting 10 23.9
2019-Sep-15 02:30 014 7 gusting 11 23.9
2019-Sep-15 02:25 012 7 gusting 10 23.9
2019-Sep-15 02:20 007 8 gusting 13 23.9
2019-Sep-15 02:15 015 8 gusting 10 23.9
2019-Sep-15 02:10 006 9 gusting 12 23.9
2019-Sep-15 02:05 013 6 gusting 10 23.9
2019-Sep-15 02:00 019 7 gusting 10 23.9
2019-Sep-15 01:55 019 7 gusting 10 23.9
2019-Sep-15 01:50 010 7 gusting 11 23.9
2019-Sep-15 01:45 018 7 gusting 10 23.9
2019-Sep-15 01:40 016 8 gusting 12 23.9
2019-Sep-15 01:35 013 6 gusting 10 23.9
2019-Sep-15 01:30 015 6 gusting 10 23.9
2019-Sep-15 01:25 008 8 gusting 11 23.9
2019-Sep-15 01:20 009 7 gusting 10 23.9
2019-Sep-15 01:15 012 7 gusting 11 23.9
2019-Sep-15 01:10 005 6 gusting 11 23.9
2019-Sep-15 01:05 004 7 gusting 11 23.9
2019-Sep-15 01:00 006 7 gusting 11 23.9
2019-Sep-15 00:55 012 8 gusting 10 23.9
2019-Sep-15 00:50 014 8 gusting 11 23.9
2019-Sep-15 00:45 010 7 gusting 11 23.9
2019-Sep-15 00:40 013 7 gusting 10 23.9
2019-Sep-15 00:35 012 8 gusting 10 23.9
2019-Sep-15 00:30 011 8 gusting 13 24.4
2019-Sep-15 00:25 019 8 gusting 12 24.4
2019-Sep-15 00:20 012 9 gusting 15 24.4
2019-Sep-15 00:15 007 12 gusting 17 24.4
2019-Sep-15 00:10 011 11 gusting 15 24.4
2019-Sep-15 00:05 011 12 gusting 18 24.4
2019-Sep-15 00:00 022 8 gusting 13 24.4
2019-Sep-14 23:55 015 10 gusting 13 24.4
2019-Sep-14 23:50 009 9 gusting 13 24.4
2019-Sep-14 23:45 001 7 gusting 13 24.4
2019-Sep-14 23:40 009 8 gusting 13 24.4
2019-Sep-14 23:35 007 8 gusting 13 24.4
2019-Sep-14 23:30 028 8 gusting 13 24.4
2019-Sep-14 23:25 009 8 gusting 13 24.4
2019-Sep-14 23:20 021 8 gusting 12 24.4
2019-Sep-14 23:15 018 6 gusting 12 24.4
2019-Sep-14 23:10 025 7 gusting 14 24.4
2019-Sep-14 23:05 038 8 gusting 13 24.4
2019-Sep-14 23:00 036 8 gusting 17 24.4
2019-Sep-14 22:55 035 6 gusting 12 24.4
2019-Sep-14 22:50 056 11 gusting 17 24.4
2019-Sep-14 22:45 045 6 gusting 13 24.4
2019-Sep-14 22:40 051 10 gusting 13 24.4
2019-Sep-14 22:35 012 6 gusting 10 24.4
2019-Sep-14 22:30 025 10 gusting 17 24.4
2019-Sep-14 22:25 019 9 gusting 15 24.4
2019-Sep-14 22:20 022 10 gusting 12 24.4
2019-Sep-14 22:15 020 8 gusting 13 24.4
2019-Sep-14 22:10 026 8 gusting 12 24.4
2019-Sep-14 22:05 033 6 gusting 12 24.4
2019-Sep-14 22:00 023 6 gusting 17 24.4